Main page
METAR-TAF:

METAR-TAF

Airports :

Yüksekova, Turkey

Hakkari–Yüksekova Airport

latitude: 37-33-06N, longitude: 44-14-01E, elevation: 1950 m

Current weather observation

The report was made 16 hours and 6 minutes ago, at 12:50 UTC
Wind 14 kt from the Southwest, varying between South/Southwest and West
Temperature 31°C
Humidity 10%
Pressure 1018 hPa
Visibility 10 km or more
no clouds below 1500 m and no cumulonimbus

METAR: LTCW 231250Z 22014KT 200V270 CAVOK 31/M04 Q1018

Time: 07:56 (04:56 UTC)

Forecast

The report was made 3 hours and 16 minutes ago, at 01:40 UTC
Forecast valid from 24 at 03 UTC to 24 at 12 UTC
Wind 2 kt from variable directions
Visibility 10 km or more
no clouds below 1500 m and no cumulonimbus

TAF: LTCW 240140Z 2403/2412 VRB02KT CAVOK

Weather observations and forecasts of more than 4000 airports (METAR and TAF reports).

The available stations are represented by yellow and red dots on the map.

Hover mouse over dot to see the name of the station.

Then click to see weather observations and forecasts.

To change the map : click on the green buttons with a black cross to zoom in, on the green button with a dash to zoom out, or on the green arrows for adjacent maps.


METAR-TAF: